Sylva, North Carolina
Current Conditions -  °F | °C
As of 1:55 PM on Tuesday 27 Jan 2015 (Local Time) from KGKT Reporting Station
Overcast Overcast  
Wind Chill: 34°   Ceiling: 2100
Heat Index: 34°   Visibility: 10mi
Dew Point: 27°   Wind: 3mph
Humidity: 75%   Direction: 260°W
Pressure: 29.99"   Gusts: NA
Location:  35.37°N, 83.23°W
Report Text: KGKT 271855Z AUTO 26003KT 10SM BKN021 OVC027 01/M03 A2999 RMK
Loading
Personal Weather Stations






























Interactive Weather Map New forecast layout! Learn more

10-Day Weather Forecast

Advertisements
Track Severe Weather on mobile